Terminal Aerodrome Forecast
Issued by NWS

Home | Current Version | Previous Version | Text Only | Print | Product List | Glossary On
Versions: 1 2 3 4 5 6 7 8 9 10 11 12 13 14 15 16 17 18
000
FTUS44 KCRP 022300
TAFALI
TAF
KALI 022327Z 0300/0324 14018G25KT P6SM VCSH SCT040 BKN080
     FM030200 12010KT P6SM SCT020 BKN150
     FM030800 13004KT P6SM VCSH BKN020 OVC150
     FM031800 13012KT P6SM VCSH BKN035 OVC100
      TEMPO 0318/0322 VRB15G25KT 1SM TSRA OVC030CB=

USA.gov is the U.S. government's official web portal to all federal, state and local government web resources and services.